createdAt,value
2019-05-23T00:01:01.547Z,12.67
2019-05-23T00:03:38.793Z,13.70
2019-05-23T00:06:11.387Z,13.93
2019-05-23T00:08:41.487Z,14.23
2019-05-23T00:11:32.132Z,12.50
2019-05-23T00:14:06.909Z,13.23
2019-05-23T00:16:38.766Z,14.17
2019-05-23T00:19:07.804Z,12.67
2019-05-23T00:21:37.154Z,18.20
2019-05-23T00:24:06.410Z,13.60
2019-05-23T00:26:36.117Z,13.03
2019-05-23T00:29:09.839Z,15.37
2019-05-23T00:31:50.006Z,12.68
2019-05-23T00:34:18.891Z,13.50
2019-05-23T00:36:50.039Z,14.23
2019-05-23T00:39:19.662Z,13.90
2019-05-23T00:41:49.306Z,13.27
2019-05-23T00:44:18.971Z,15.23
2019-05-23T00:46:48.772Z,14.17
2019-05-23T00:49:18.445Z,11.10
2019-05-23T00:51:47.813Z,12.82
2019-05-23T00:54:19.241Z,13.03
2019-05-23T00:56:48.177Z,13.40
2019-05-23T00:59:26.631Z,13.20
2019-05-23T01:01:49.238Z,12.00
2019-05-23T01:04:19.087Z,13.30
2019-05-23T01:06:49.194Z,12.93
2019-05-23T01:09:19.297Z,16.87
2019-05-23T01:11:48.874Z,14.70
2019-05-23T01:14:18.403Z,13.63
2019-05-23T01:16:49.445Z,13.70
2019-05-23T01:19:19.113Z,17.30
2019-05-23T01:21:59.945Z,18.63
2019-05-23T01:24:34.364Z,17.87
2019-05-23T01:27:04.528Z,15.17
2019-05-23T01:29:42.046Z,15.90
2019-05-23T01:32:30.780Z,15.53
2019-05-23T01:35:03.303Z,15.83
2019-05-23T01:37:32.146Z,16.37
2019-05-23T01:40:02.143Z,17.83
2019-05-23T01:42:31.084Z,15.60
2019-05-23T01:45:02.610Z,16.80
2019-05-23T01:47:32.302Z,18.48
2019-05-23T01:50:01.974Z,18.03
2019-05-23T01:52:31.637Z,17.65
2019-05-23T01:55:00.863Z,15.93
2019-05-23T01:57:30.187Z,17.13
2019-05-23T02:00:09.925Z,16.00
2019-05-23T02:02:32.297Z,16.85
2019-05-23T02:05:01.114Z,16.30
2019-05-23T02:07:31.186Z,17.07
2019-05-23T02:10:00.281Z,17.17
2019-05-23T02:12:31.605Z,22.67
2019-05-23T02:15:02.782Z,17.47
2019-05-23T02:17:33.544Z,16.93
2019-05-23T02:20:02.914Z,18.73
2019-05-23T02:22:32.102Z,16.87
2019-05-23T02:25:02.199Z,17.15
2019-05-23T02:27:31.445Z,18.83
2019-05-23T02:30:01.298Z,18.10
2019-05-23T02:32:30.730Z,19.07
2019-05-23T02:35:00.559Z,21.13
2019-05-23T02:37:49.158Z,20.80
2019-05-23T02:40:25.622Z,17.83
2019-05-23T02:42:58.385Z,18.03
2019-05-23T02:45:33.962Z,15.57
2019-05-23T02:48:08.390Z,17.13
2019-05-23T02:50:46.082Z,17.50
2019-05-23T02:53:16.857Z,20.17
2019-05-23T02:55:46.459Z,17.93
2019-05-23T02:58:22.046Z,20.67
2019-05-23T03:01:01.065Z,21.50
2019-05-23T03:03:32.581Z,18.07
2019-05-23T03:06:04.445Z,19.03
2019-05-23T03:08:35.156Z,19.60
2019-05-23T03:11:18.797Z,20.50
2019-05-23T03:13:49.558Z,22.40
2019-05-23T03:16:24.930Z,19.75
2019-05-23T03:18:59.696Z,21.27
2019-05-23T03:21:29.129Z,22.30
2019-05-23T03:23:58.899Z,19.67
2019-05-23T03:27:15.410Z,20.73
2019-05-23T03:29:46.451Z,21.10
2019-05-23T03:32:24.674Z,19.07
2019-05-23T03:35:00.764Z,20.27
2019-05-23T03:37:30.395Z,21.60
2019-05-23T03:39:59.415Z,22.32
2019-05-23T03:42:29.038Z,21.97
2019-05-23T03:44:57.779Z,19.17
2019-05-23T03:47:28.176Z,19.77
2019-05-23T03:49:58.813Z,22.07
2019-05-23T03:52:27.876Z,19.97
2019-05-23T03:55:01.529Z,20.17
2019-05-23T03:57:30.782Z,17.90
2019-05-23T04:00:02.016Z,21.73
2019-05-23T04:02:31.566Z,20.67
2019-05-23T04:05:00.735Z,19.98
2019-05-23T04:07:31.212Z,21.03
2019-05-23T04:10:00.049Z,19.17
2019-05-23T04:12:29.063Z,19.40
2019-05-23T04:14:59.410Z,20.10
2019-05-23T04:17:28.254Z,18.00
2019-05-23T04:19:57.189Z,19.03
2019-05-23T04:22:26.541Z,23.13
2019-05-23T04:24:55.470Z,21.40
2019-05-23T04:27:24.327Z,22.83
2019-05-23T04:29:53.437Z,18.73
2019-05-23T04:32:22.901Z,18.13
2019-05-23T04:34:52.632Z,14.33
2019-05-23T04:37:21.640Z,16.97
2019-05-23T04:39:50.672Z,16.80
2019-05-23T04:42:19.571Z,15.03
2019-05-23T04:44:48.603Z,14.47
2019-05-23T04:47:18.779Z,18.03
2019-05-23T04:49:47.704Z,14.75
2019-05-23T04:52:17.178Z,13.87
2019-05-23T04:54:47.219Z,12.25
2019-05-23T04:57:18.242Z,12.00
2019-05-23T04:59:47.969Z,15.67
2019-05-23T05:02:26.522Z,22.80
2019-05-23T05:04:48.637Z,19.87
2019-05-23T05:07:17.673Z,11.97
2019-05-23T05:09:47.604Z,13.40
2019-05-23T05:12:18.032Z,12.68
2019-05-23T05:14:46.770Z,11.27
2019-05-23T05:17:15.884Z,11.45
2019-05-23T05:19:45.217Z,9.63
2019-05-23T05:22:14.196Z,10.65
2019-05-23T05:24:42.964Z,10.97
2019-05-23T05:27:12.445Z,12.30
2019-05-23T05:29:41.179Z,10.33
2019-05-23T05:32:10.255Z,13.13
2019-05-23T05:34:39.130Z,11.13
2019-05-23T05:37:08.086Z,9.87
2019-05-23T05:39:37.230Z,8.20
2019-05-23T05:42:08.239Z,8.67
2019-05-23T05:44:38.152Z,9.13
2019-05-23T05:47:08.545Z,8.30
2019-05-23T05:49:37.491Z,8.33
2019-05-23T05:52:07.797Z,8.70
2019-05-23T05:54:37.274Z,7.58
2019-05-23T05:57:06.610Z,7.63
2019-05-23T05:59:35.350Z,8.40
2019-05-23T06:02:05.965Z,8.53
2019-05-23T06:04:35.276Z,9.50
2019-05-23T06:07:31.754Z,7.30
2019-05-23T06:10:01.003Z,7.37
2019-05-23T06:12:29.887Z,7.77
2019-05-23T06:14:58.707Z,7.60
2019-05-23T06:17:27.837Z,7.07
2019-05-23T06:19:56.728Z,7.10
2019-05-23T06:22:25.953Z,7.83
2019-05-23T06:24:57.575Z,8.03
2019-05-23T06:27:26.304Z,10.17
2019-05-23T06:29:55.442Z,8.17
2019-05-23T06:32:26.418Z,7.47
2019-05-23T06:34:56.450Z,7.63
2019-05-23T06:37:25.251Z,8.77
2019-05-23T06:39:54.008Z,8.07
2019-05-23T06:42:23.488Z,8.63
2019-05-23T06:44:52.639Z,8.60
2019-05-23T06:47:21.753Z,8.33
2019-05-23T06:49:50.677Z,8.83
2019-05-23T06:52:19.768Z,8.37
2019-05-23T06:54:48.615Z,9.83
2019-05-23T06:57:17.845Z,8.90
2019-05-23T06:59:47.371Z,9.13
2019-05-23T07:02:16.134Z,8.20
2019-05-23T07:04:44.943Z,8.93
2019-05-23T07:07:14.775Z,8.63
2019-05-23T07:09:43.529Z,7.78
2019-05-23T07:12:12.547Z,8.47
2019-05-23T07:14:41.915Z,8.25
2019-05-23T07:17:11.692Z,8.73
2019-05-23T07:19:40.511Z,7.83
2019-05-23T07:22:10.110Z,7.57
2019-05-23T07:24:55.165Z,7.93
2019-05-23T07:27:09.491Z,7.53
2019-05-23T07:29:39.315Z,7.80
2019-05-23T07:32:08.299Z,7.70
2019-05-23T07:34:37.204Z,7.67
2019-05-23T07:37:06.255Z,10.05
2019-05-23T07:39:35.122Z,8.17
2019-05-23T07:42:05.909Z,10.25
2019-05-23T07:44:47.906Z,7.83
2019-05-23T07:47:07.140Z,8.70
2019-05-23T07:49:35.889Z,8.40
2019-05-23T07:52:06.468Z,8.45
2019-05-23T07:54:41.278Z,8.03
2019-05-23T07:57:13.595Z,8.83
2019-05-23T07:59:43.175Z,8.30
2019-05-23T08:02:25.547Z,8.77
2019-05-23T08:04:52.229Z,8.70
2019-05-23T08:07:23.617Z,8.77
2019-05-23T08:09:52.405Z,8.47
2019-05-23T08:12:21.735Z,8.55
2019-05-23T08:14:50.778Z,8.93
2019-05-23T08:17:20.416Z,8.53
2019-05-23T08:19:50.522Z,8.60
2019-05-23T08:22:19.571Z,8.23
2019-05-23T08:24:51.329Z,7.93
2019-05-23T08:27:19.748Z,7.67
2019-05-23T08:29:48.768Z,7.47
2019-05-23T08:32:17.669Z,8.57
2019-05-23T08:34:46.447Z,8.35
2019-05-23T08:37:16.258Z,8.03
2019-05-23T08:39:45.930Z,8.33
2019-05-23T08:42:16.184Z,8.37
2019-05-23T08:44:46.290Z,8.17
2019-05-23T08:47:15.401Z,8.37
2019-05-23T08:49:44.683Z,7.30
2019-05-23T08:52:13.420Z,8.80
2019-05-23T08:54:43.547Z,7.97
2019-05-23T08:57:15.233Z,9.53
2019-05-23T08:59:44.751Z,10.13
2019-05-23T09:02:14.161Z,9.58
2019-05-23T09:05:02.612Z,9.47
2019-05-23T09:07:13.835Z,9.70
2019-05-23T09:09:45.986Z,10.53
2019-05-23T09:12:15.683Z,10.95
2019-05-23T09:14:44.845Z,10.70
2019-05-23T09:17:13.943Z,10.07
2019-05-23T09:19:43.101Z,9.57
2019-05-23T09:22:13.312Z,9.60
2019-05-23T09:24:42.524Z,9.73
2019-05-23T09:27:11.896Z,10.57
2019-05-23T09:29:41.765Z,9.73
2019-05-23T09:32:11.159Z,10.90
2019-05-23T09:34:39.886Z,10.10
2019-05-23T09:37:09.394Z,10.33
2019-05-23T09:39:39.870Z,11.10
2019-05-23T09:42:11.982Z,10.20
2019-05-23T09:44:40.316Z,12.00
2019-05-23T09:47:09.161Z,11.23
2019-05-23T09:49:38.010Z,11.05
2019-05-23T09:52:08.348Z,9.60
2019-05-23T09:54:39.255Z,10.90
2019-05-23T09:57:09.678Z,10.57
2019-05-23T09:59:38.549Z,10.40
2019-05-23T10:02:08.357Z,10.37
2019-05-23T10:04:39.159Z,9.50
2019-05-23T10:07:07.922Z,8.30
2019-05-23T10:09:36.695Z,11.67
2019-05-23T10:12:05.743Z,11.78
2019-05-23T10:14:46.927Z,10.70
2019-05-23T10:17:16.119Z,12.53
2019-05-23T10:19:44.918Z,9.70
2019-05-23T10:22:13.937Z,11.80
2019-05-23T10:24:42.701Z,10.43
2019-05-23T10:27:13.629Z,12.13
2019-05-23T10:29:42.423Z,13.17
2019-05-23T10:32:12.766Z,11.73
2019-05-23T10:34:41.589Z,13.27
2019-05-23T10:37:12.570Z,13.80
2019-05-23T10:39:46.234Z,16.70
2019-05-23T10:42:18.238Z,13.23
2019-05-23T10:44:47.171Z,18.67
2019-05-23T10:47:16.003Z,15.10
2019-05-23T10:49:45.330Z,14.17
2019-05-23T10:52:15.825Z,12.37
2019-05-23T10:54:44.567Z,15.20
2019-05-23T10:57:13.746Z,13.43
2019-05-23T10:59:42.546Z,14.75
2019-05-23T11:02:12.720Z,13.77
2019-05-23T11:04:42.658Z,13.08
2019-05-23T11:07:12.879Z,15.47
2019-05-23T11:09:42.066Z,14.70
2019-05-23T11:12:12.220Z,14.17
2019-05-23T11:14:41.340Z,15.27
2019-05-23T11:17:10.718Z,15.57
2019-05-23T11:19:39.910Z,12.13
2019-05-23T11:22:11.040Z,11.70
2019-05-23T11:24:40.375Z,14.77
2019-05-23T11:27:09.162Z,12.95
2019-05-23T11:29:38.020Z,14.00
2019-05-23T11:32:09.466Z,14.53
2019-05-23T11:34:38.278Z,13.83
2019-05-23T11:37:07.128Z,13.80
2019-05-23T11:39:41.956Z,13.70
2019-05-23T11:42:07.934Z,14.25
2019-05-23T11:44:37.012Z,15.53
2019-05-23T11:47:09.380Z,15.28
2019-05-23T11:49:38.829Z,14.77
2019-05-23T11:52:09.419Z,15.83
2019-05-23T11:54:38.850Z,16.77
2019-05-23T11:57:08.933Z,16.00
2019-05-23T11:59:38.125Z,16.00
2019-05-23T12:02:30.929Z,13.83
2019-05-23T12:05:02.089Z,14.40
2019-05-23T12:07:31.787Z,16.40
2019-05-23T12:10:00.839Z,13.27
2019-05-23T12:12:29.721Z,12.63
2019-05-23T12:14:58.509Z,17.67
2019-05-23T12:17:30.835Z,15.67
2019-05-23T12:20:00.371Z,15.40
2019-05-23T12:22:29.434Z,15.90
2019-05-23T12:24:58.525Z,16.27
2019-05-23T12:27:27.539Z,15.47
2019-05-23T12:29:56.661Z,13.43
2019-05-23T12:32:25.427Z,15.63
2019-05-23T12:35:09.303Z,14.25
2019-05-23T12:37:24.991Z,13.37
2019-05-23T12:39:54.550Z,13.47
2019-05-23T12:42:23.618Z,11.13
2019-05-23T12:44:52.407Z,13.90
2019-05-23T12:47:44.548Z,13.97
2019-05-23T12:50:16.950Z,13.30
2019-05-23T12:52:45.701Z,11.40
2019-05-23T12:55:14.939Z,13.05
2019-05-23T12:57:43.831Z,12.77
2019-05-23T13:00:22.470Z,14.05
2019-05-23T13:02:51.915Z,12.73
2019-05-23T13:05:21.116Z,11.18
2019-05-23T13:07:49.968Z,11.80
2019-05-23T13:10:23.774Z,13.07
2019-05-23T13:12:49.586Z,12.90
2019-05-23T13:15:19.725Z,12.63
2019-05-23T13:17:48.508Z,11.93
2019-05-23T13:20:18.980Z,14.27
2019-05-23T13:22:47.741Z,12.07
2019-05-23T13:25:16.820Z,11.47
2019-05-23T13:27:45.580Z,11.53
2019-05-23T13:30:14.827Z,10.35
2019-05-23T13:32:44.253Z,12.80
2019-05-23T13:35:13.363Z,10.47
2019-05-23T13:37:53.123Z,9.38
2019-05-23T13:40:14.051Z,12.27
2019-05-23T13:42:43.485Z,12.70
2019-05-23T13:45:13.176Z,11.30
2019-05-23T13:47:42.907Z,10.15
2019-05-23T13:50:12.032Z,12.83
2019-05-23T13:52:41.323Z,11.13
2019-05-23T13:55:10.502Z,10.40
2019-05-23T13:57:39.223Z,11.07
2019-05-23T14:00:09.253Z,12.15
2019-05-23T14:02:38.180Z,10.07
2019-05-23T14:05:07.592Z,9.63
2019-05-23T14:07:36.615Z,9.77
2019-05-23T14:10:06.154Z,9.73
2019-05-23T14:12:34.985Z,10.13
2019-05-23T14:15:04.103Z,11.03
2019-05-23T14:17:37.083Z,13.43
2019-05-23T14:20:06.553Z,12.87
2019-05-23T14:22:34.712Z,9.60
2019-05-23T14:25:04.075Z,9.23
2019-05-23T14:27:39.513Z,8.65
2019-05-23T14:30:17.152Z,8.83
2019-05-23T14:32:53.984Z,8.43
2019-05-23T14:35:28.118Z,12.87
2019-05-23T14:37:59.200Z,12.27
2019-05-23T14:40:28.259Z,9.40
2019-05-23T14:45:57.854Z,9.93
2019-05-23T14:48:40.734Z,10.33
2019-05-23T14:51:27.215Z,8.63
2019-05-23T14:54:01.102Z,10.30
2019-05-23T14:56:32.652Z,10.23
2019-05-23T14:59:01.469Z,8.47
2019-05-23T15:01:31.917Z,8.07
2019-05-23T15:04:00.911Z,9.95
2019-05-23T15:06:29.988Z,8.07
2019-05-23T15:08:58.781Z,7.85
2019-05-23T15:11:28.129Z,8.73
2019-05-23T15:13:57.139Z,10.38
2019-05-23T15:16:26.368Z,9.60
2019-05-23T15:18:55.247Z,10.53
2019-05-23T15:21:24.347Z,9.30
2019-05-23T15:23:53.323Z,9.07
2019-05-23T15:26:23.720Z,9.47
2019-05-23T15:28:52.945Z,8.63
2019-05-23T15:31:22.876Z,7.63
2019-05-23T15:33:54.041Z,9.33
2019-05-23T15:36:23.234Z,14.73
2019-05-23T15:39:08.072Z,12.77
2019-05-23T15:41:22.614Z,8.93
2019-05-23T15:43:51.515Z,8.50
2019-05-23T15:46:20.379Z,9.20
2019-05-23T15:48:49.306Z,8.70
2019-05-23T15:51:22.990Z,10.13
2019-05-23T15:54:03.579Z,7.87
2019-05-23T15:56:52.955Z,8.65
2019-05-23T15:59:32.200Z,8.30
2019-05-23T16:02:13.895Z,9.53
2019-05-23T16:04:43.291Z,8.95
2019-05-23T16:07:13.252Z,8.57
2019-05-23T16:09:42.354Z,9.45
2019-05-23T16:12:13.017Z,9.77
2019-05-23T16:14:42.526Z,8.87
2019-05-23T16:17:12.478Z,8.60
2019-05-23T16:19:42.679Z,9.10
2019-05-23T16:22:12.212Z,9.00
2019-05-23T16:24:40.982Z,9.03
2019-05-23T16:27:10.300Z,7.80
2019-05-23T16:29:41.293Z,8.53
2019-05-23T16:32:11.467Z,9.00
2019-05-23T16:34:40.873Z,7.90
2019-05-23T16:37:09.708Z,10.08
2019-05-23T16:39:47.603Z,7.17
2019-05-23T16:42:09.882Z,10.48
2019-05-23T16:44:38.815Z,6.37
2019-05-23T16:47:07.620Z,8.13
2019-05-23T16:49:36.365Z,8.67
2019-05-23T16:52:06.367Z,8.58
2019-05-23T16:54:39.939Z,7.57
2019-05-23T16:57:43.623Z,6.90
2019-05-23T17:00:42.782Z,9.60
2019-05-23T17:03:32.571Z,8.53
2019-05-23T17:06:35.660Z,7.63
2019-05-23T17:09:26.277Z,7.40
2019-05-23T17:12:14.614Z,8.23
2019-05-23T17:14:42.696Z,9.77
2019-05-23T17:17:49.411Z,11.33
2019-05-23T17:20:20.340Z,8.07
2019-05-23T17:23:02.515Z,7.33
2019-05-23T17:25:42.464Z,8.03
2019-05-23T17:28:18.989Z,8.07
2019-05-23T17:30:51.179Z,10.15
2019-05-23T17:33:19.928Z,7.13
2019-05-23T17:35:48.727Z,11.75
2019-05-23T17:38:17.640Z,8.90
2019-05-23T17:40:47.396Z,9.17
2019-05-23T17:43:16.259Z,8.47
2019-05-23T17:48:13.506Z,9.03
2019-05-23T17:50:42.608Z,7.57
2019-05-23T17:53:11.451Z,8.50
2019-05-23T17:55:40.456Z,8.50
2019-05-23T17:58:09.355Z,8.77
2019-05-23T18:00:39.898Z,10.33
2019-05-23T18:03:09.410Z,7.75
2019-05-23T18:05:38.743Z,8.50
2019-05-23T18:08:10.006Z,8.60
2019-05-23T18:10:45.137Z,9.10
2019-05-23T18:13:10.856Z,7.80
2019-05-23T18:15:42.334Z,7.87
2019-05-23T18:18:11.516Z,10.17
2019-05-23T18:20:41.267Z,7.87
2019-05-23T18:23:11.023Z,9.23
2019-05-23T18:25:41.226Z,8.90
2019-05-23T18:28:12.148Z,8.43
2019-05-23T18:30:47.988Z,9.05
2019-05-23T18:33:18.015Z,7.30
2019-05-23T18:35:47.641Z,8.70
2019-05-23T18:38:17.248Z,6.63
2019-05-23T18:41:01.735Z,7.25
2019-05-23T18:43:17.924Z,11.20
2019-05-23T18:45:49.633Z,6.30
2019-05-23T18:48:20.051Z,6.67
2019-05-23T18:50:50.032Z,9.15
2019-05-23T18:53:19.782Z,19.37
2019-05-23T18:55:48.693Z,10.83
2019-05-23T18:58:19.599Z,9.53
2019-05-23T19:01:21.701Z,8.10
2019-05-23T19:03:50.707Z,8.70
2019-05-23T19:06:19.760Z,7.93
2019-05-23T19:08:49.924Z,8.77
2019-05-23T19:11:21.246Z,8.53
2019-05-23T19:13:49.831Z,18.03
2019-05-23T19:16:19.113Z,12.20
2019-05-23T19:18:48.580Z,10.43
2019-05-23T19:21:18.271Z,11.38
2019-05-23T19:23:47.540Z,9.30
2019-05-23T19:26:16.803Z,8.08
2019-05-23T19:28:46.504Z,8.50
2019-05-23T19:31:15.976Z,10.13
2019-05-23T19:33:46.028Z,9.50
2019-05-23T19:36:15.957Z,8.93
2019-05-23T19:38:45.548Z,9.20
2019-05-23T19:41:15.295Z,9.15
2019-05-23T19:43:48.072Z,11.93
2019-05-23T19:46:15.934Z,10.33
2019-05-23T19:48:45.315Z,8.63
2019-05-23T19:51:17.249Z,15.47
2019-05-23T19:53:46.558Z,15.30
2019-05-23T19:56:15.649Z,12.90
2019-05-23T19:58:44.748Z,11.38
2019-05-23T20:01:14.459Z,9.20
2019-05-23T20:03:43.739Z,9.40
2019-05-23T20:06:13.334Z,11.07
2019-05-23T20:08:43.950Z,8.77
2019-05-23T20:11:13.259Z,9.13
2019-05-23T20:13:43.755Z,9.70
2019-05-23T20:16:14.081Z,11.77
2019-05-23T20:18:43.166Z,10.20
2019-05-23T20:21:12.349Z,13.37
2019-05-23T20:23:41.532Z,10.60
2019-05-23T20:26:10.569Z,9.73
2019-05-23T20:28:40.307Z,11.17
2019-05-23T20:31:11.004Z,10.53
2019-05-23T20:33:40.638Z,10.60
2019-05-23T20:36:13.028Z,10.75
2019-05-23T20:38:43.657Z,11.13
2019-05-23T20:41:12.775Z,9.80
2019-05-23T20:43:41.737Z,10.23
2019-05-23T20:46:10.842Z,10.93
2019-05-23T20:48:51.870Z,11.73
2019-05-23T20:51:21.499Z,10.83
2019-05-23T20:53:51.069Z,11.87
2019-05-23T20:56:24.679Z,10.00
2019-05-23T20:58:53.947Z,10.60
2019-05-23T21:01:30.785Z,10.30
2019-05-23T21:04:41.520Z,10.70
2019-05-23T21:07:11.174Z,11.10
2019-05-23T21:09:40.098Z,11.00
2019-05-23T21:12:09.005Z,10.93
2019-05-23T21:14:37.816Z,12.10
2019-05-23T21:17:06.618Z,11.20
2019-05-23T21:19:35.531Z,11.37
2019-05-23T21:22:04.771Z,11.27
2019-05-23T21:24:34.190Z,10.93
2019-05-23T21:27:02.976Z,13.83
2019-05-23T21:29:31.921Z,11.00
2019-05-23T21:32:00.748Z,11.12
2019-05-23T21:34:29.582Z,12.10
2019-05-23T21:36:58.433Z,12.15
2019-05-23T21:39:27.469Z,12.87
2019-05-23T21:41:56.213Z,12.20
2019-05-23T21:44:25.300Z,12.07
2019-05-23T21:46:54.856Z,12.28
2019-05-23T21:49:23.787Z,12.03
2019-05-23T21:51:52.934Z,12.10
2019-05-23T21:54:21.784Z,15.40
2019-05-23T21:56:50.527Z,12.50
2019-05-23T21:59:19.304Z,12.45
2019-05-23T22:04:23.865Z,14.10
2019-05-23T22:06:55.874Z,13.83
2019-05-23T22:09:25.627Z,12.88
2019-05-23T22:11:55.412Z,12.83
2019-05-23T22:14:24.330Z,12.33
2019-05-23T22:16:54.131Z,12.23
2019-05-23T22:19:23.388Z,13.03
2019-05-23T22:21:52.171Z,12.87
2019-05-23T22:24:21.779Z,13.33
2019-05-23T22:26:50.634Z,12.23
2019-05-23T22:29:19.932Z,12.77
2019-05-23T22:31:48.703Z,13.07
2019-05-23T22:34:28.892Z,12.57
2019-05-23T22:36:58.114Z,14.63
2019-05-23T22:39:27.824Z,13.37
2019-05-23T22:41:56.673Z,14.63
2019-05-23T22:44:25.820Z,14.93
2019-05-23T22:46:54.982Z,13.07
2019-05-23T22:49:23.730Z,13.23
2019-05-23T22:51:52.569Z,13.48
2019-05-23T22:54:21.332Z,14.20
2019-05-23T22:56:50.235Z,15.50
2019-05-23T22:59:18.998Z,14.37
2019-05-23T23:01:47.818Z,13.40
2019-05-23T23:04:16.660Z,15.67
2019-05-23T23:06:45.427Z,13.63
2019-05-23T23:09:14.273Z,14.93
2019-05-23T23:11:43.004Z,14.77
2019-05-23T23:14:12.047Z,15.90
2019-05-23T23:16:40.872Z,14.83
2019-05-23T23:19:10.441Z,15.83
2019-05-23T23:21:39.402Z,14.90
2019-05-23T23:24:08.345Z,15.70
2019-05-23T23:26:37.119Z,15.33
2019-05-23T23:29:06.994Z,17.43
2019-05-23T23:31:35.763Z,16.23
2019-05-23T23:34:04.633Z,15.23
2019-05-23T23:36:33.414Z,15.53
2019-05-23T23:39:02.315Z,15.13
2019-05-23T23:41:31.318Z,13.72
2019-05-23T23:44:00.410Z,15.53
2019-05-23T23:46:48.253Z,11.70
2019-05-23T23:49:35.010Z,11.70
2019-05-23T23:52:21.658Z,11.30
2019-05-23T23:55:08.127Z,11.40
2019-05-23T23:57:54.933Z,11.73
